Time;durP1;ratioP1;P1;durP2;ratioP2;P2;SDS_P1;SDS_P2;PMS_P1;PMS_P2;Temp;Humidity;BMP_temperature;BMP_pressure;BME280_temperature;BME280_humidity;BME280_pressure;Samples;Min_cycle;Max_cycle;Signal;HPM_P1;HPM_P2
2023/09/07 00:01:23;;;;;;;5.45;3.90;;;21.70;97.00;;;;;;5070773;28;20032;-75
2023/09/07 00:03:49;;;;;;;4.47;4.07;;;21.70;97.00;;;;;;5071251;28;20146;-75
2023/09/07 00:06:15;;;;;;;5.10;3.90;;;21.70;97.00;;;;;;5069427;28;20017;-75
2023/09/07 00:08:40;;;;;;;4.97;4.00;;;21.70;97.10;;;;;;5069599;28;20504;-75
2023/09/07 00:11:07;;;;;;;5.97;3.88;;;21.60;97.10;;;;;;5069366;28;20039;-75
2023/09/07 00:13:33;;;;;;;4.43;4.03;;;21.60;97.10;;;;;;5070089;28;20052;-75
2023/09/07 00:16:03;;;;;;;5.78;4.47;;;21.60;97.40;;;;;;5069807;28;20114;-75
2023/09/07 00:18:30;;;;;;;5.78;4.72;;;21.60;97.30;;;;;;5069868;28;20477;-75
2023/09/07 00:20:56;;;;;;;5.47;4.97;;;21.50;97.30;;;;;;5054352;28;20021;-75
2023/09/07 00:23:21;;;;;;;5.10;4.60;;;21.50;97.30;;;;;;5056491;28;20206;-75
2023/09/07 00:25:47;;;;;;;5.20;4.70;;;21.50;97.40;;;;;;5069182;28;20469;-75
2023/09/07 00:28:13;;;;;;;5.80;5.20;;;21.50;97.40;;;;;;5053118;28;20040;-75
2023/09/07 00:30:39;;;;;;;5.70;4.90;;;21.50;97.50;;;;;;5053177;28;20021;-75
2023/09/07 00:33:05;;;;;;;6.15;4.93;;;21.40;97.50;;;;;;5069496;28;20017;-75
2023/09/07 00:35:30;;;;;;;5.55;4.60;;;21.40;97.50;;;;;;5068842;28;20130;-76
2023/09/07 00:37:56;;;;;;;7.43;4.18;;;21.40;97.50;;;;;;5068587;28;20028;-75
2023/09/07 00:40:22;;;;;;;5.32;4.43;;;21.40;97.50;;;;;;5055309;28;20506;-76
2023/09/07 00:42:48;;;;;;;4.80;4.30;;;21.40;97.60;;;;;;5069360;28;20035;-76
2023/09/07 00:45:13;;;;;;;8.43;5.25;;;21.40;97.60;;;;;;5068648;28;20096;-75
2023/09/07 00:47:40;;;;;;;6.22;4.55;;;21.30;97.70;;;;;;5070337;28;20021;-75
2023/09/07 00:50:06;;;;;;;5.38;4.78;;;21.30;97.70;;;;;;5063914;28;20073;-75
2023/09/07 00:52:39;;;;;;;5.38;4.97;;;21.30;97.70;;;;;;5054616;28;20025;-75
2023/09/07 00:55:06;;;;;;;5.22;4.53;;;21.30;97.80;;;;;;5045333;28;20385;-75
2023/09/07 00:57:32;;;;;;;5.07;4.57;;;21.20;97.80;;;;;;5069409;28;20025;-76
2023/09/07 00:59:58;;;;;;;5.47;4.97;;;21.20;97.90;;;;;;5049691;28;20434;-76
2023/09/07 01:02:23;;;;;;;7.28;5.07;;;21.10;97.90;;;;;;5063420;28;20101;-75
2023/09/07 01:04:51;;;;;;;5.90;5.10;;;21.10;98.00;;;;;;5050751;28;20071;-75
2023/09/07 01:07:30;;;;;;;5.72;5.15;;;21.10;98.10;;;;;;5050260;28;20029;-76
2023/09/07 01:09:59;;;;;;;6.97;5.90;;;21.00;98.20;;;;;;5049919;28;20218;-75
2023/09/07 01:12:25;;;;;;;6.63;5.82;;;21.00;98.20;;;;;;5052986;28;20035;-75
2023/09/07 01:14:50;;;;;;;10.02;5.30;;;21.00;98.20;;;;;;5069996;28;20024;-76
2023/09/07 01:17:16;;;;;;;6.05;5.47;;;21.00;98.30;;;;;;5064745;28;20497;-76
2023/09/07 01:19:42;;;;;;;6.13;4.85;;;21.00;98.40;;;;;;5060219;28;20354;-75
2023/09/07 01:22:09;;;;;;;6.25;5.13;;;21.00;98.40;;;;;;5066492;28;20025;-75
2023/09/07 01:24:36;;;;;;;6.60;5.70;;;20.90;98.50;;;;;;5050040;28;20191;-76
2023/09/07 01:27:03;;;;;;;7.30;5.45;;;20.90;98.50;;;;;;5048642;28;20111;-75
2023/09/07 01:29:29;;;;;;;5.57;5.07;;;20.90;98.60;;;;;;5048732;28;20036;-75
2023/09/07 01:31:56;;;;;;;8.10;5.47;;;20.80;98.90;;;;;;5066881;28;20059;-75
2023/09/07 01:34:23;;;;;;;5.93;5.32;;;20.80;98.70;;;;;;5063882;28;20028;-75
2023/09/07 01:36:49;;;;;;;5.72;5.05;;;20.70;98.70;;;;;;5065875;28;20131;-75
2023/09/07 01:39:14;;;;;;;7.07;6.30;;;20.70;98.80;;;;;;5048972;28;20033;-76
2023/09/07 01:41:40;;;;;;;5.85;5.35;;;20.70;98.90;;;;;;5049621;28;20074;-75
2023/09/07 01:44:05;;;;;;;6.13;5.53;;;20.70;98.90;;;;;;5060275;28;20028;-75
2023/09/07 01:46:31;;;;;;;7.00;6.30;;;20.70;98.90;;;;;;5064305;28;20109;-75
2023/09/07 01:48:56;;;;;;;6.47;5.38;;;20.60;99.00;;;;;;5049945;28;20060;-75
2023/09/07 01:51:22;;;;;;;6.80;6.15;;;20.60;99.00;;;;;;5049397;28;20481;-75
2023/09/07 01:53:51;;;;;;;6.80;6.13;;;20.60;99.00;;;;;;5049121;28;20021;-75
2023/09/07 01:56:17;;;;;;;6.05;5.45;;;20.60;99.10;;;;;;5049892;28;20055;-75
2023/09/07 01:58:42;;;;;;;6.65;6.05;;;20.50;99.10;;;;;;5050231;28;20025;-76
2023/09/07 02:01:26;;;;;;;7.47;5.35;;;20.50;99.20;;;;;;5050091;28;20021;-75
2023/09/07 02:03:52;;;;;;;7.88;6.38;;;20.50;99.30;;;;;;5048868;28;20074;-75
2023/09/07 02:06:18;;;;;;;6.80;6.20;;;20.40;99.30;;;;;;5049425;28;20420;-75
2023/09/07 02:08:44;;;;;;;7.68;6.97;;;20.40;99.40;;;;;;5049004;28;20025;-75
2023/09/07 02:11:10;;;;;;;6.53;5.93;;;20.40;99.40;;;;;;5049537;28;20033;-75
2023/09/07 02:13:35;;;;;;;7.55;6.85;;;20.30;99.50;;;;;;5062585;28;20024;-76
2023/09/07 02:16:05;;;;;;;7.35;6.35;;;20.30;99.60;;;;;;5068841;28;20690;-75
2023/09/07 02:18:32;;;;;;;7.32;6.63;;;20.30;99.60;;;;;;5067562;28;20472;-76
2023/09/07 02:21:05;;;;;;;9.00;7.40;;;20.30;99.70;;;;;;5049444;28;20102;-75
2023/09/07 02:23:32;;;;;;;6.93;6.20;;;20.30;99.80;;;;;;5049338;28;20139;-75
2023/09/07 02:25:58;;;;;;;7.25;6.13;;;20.30;99.80;;;;;;5049669;28;20036;-76
2023/09/07 02:28:24;;;;;;;6.82;6.15;;;20.30;99.80;;;;;;5049067;28;20047;-75
2023/09/07 02:30:50;;;;;;;7.30;6.60;;;20.30;99.90;;;;;;5049663;28;20096;-75
2023/09/07 02:33:17;;;;;;;7.25;6.55;;;20.30;99.90;;;;;;5048770;28;20025;-75
2023/09/07 02:35:42;;;;;;;6.80;6.10;;;20.30;99.90;;;;;;5049116;28;20032;-76
2023/09/07 02:38:08;;;;;;;6.70;6.10;;;20.30;99.90;;;;;;5049263;28;20028;-76
2023/09/07 02:40:41;;;;;;;9.00;6.47;;;20.30;99.90;;;;;;5048018;28;20094;-76
2023/09/07 02:43:06;;;;;;;6.70;5.95;;;20.30;99.90;;;;;;5049641;28;20032;-76
2023/09/07 02:45:32;;;;;;;5.72;5.18;;;20.30;99.90;;;;;;5049602;28;20029;-75
2023/09/07 02:47:57;;;;;;;8.43;7.03;;;20.20;99.90;;;;;;5050220;28;20108;-76
2023/09/07 02:50:23;;;;;;;7.07;6.07;;;20.20;99.90;;;;;;5051253;28;20009;-75
2023/09/07 02:52:48;;;;;;;6.50;5.80;;;20.10;99.90;;;;;;5052830;28;20029;-76
2023/09/07 02:55:14;;;;;;;7.63;6.38;;;20.10;99.90;;;;;;5052704;28;20128;-75
2023/09/07 02:57:40;;;;;;;8.27;5.32;;;20.10;99.90;;;;;;5051918;28;20029;-75
2023/09/07 03:00:09;;;;;;;7.93;7.20;;;20.10;99.90;;;;;;5052348;28;20378;-75
2023/09/07 03:02:35;;;;;;;7.45;5.88;;;20.10;99.90;;;;;;5059971;28;20033;-75
2023/09/07 03:05:01;;;;;;;7.13;6.43;;;20.00;99.90;;;;;;5072022;28;20100;-76
2023/09/07 03:07:33;;;;;;;7.68;6.95;;;20.00;99.90;;;;;;5068966;28;20029;-76
2023/09/07 03:09:58;;;;;;;6.53;5.93;;;20.00;99.90;;;;;;5072763;28;20545;-75
2023/09/07 03:12:24;;;;;;;6.45;5.85;;;20.00;99.90;;;;;;5071826;28;20104;-76
2023/09/07 03:14:50;;;;;;;7.10;6.50;;;20.00;99.90;;;;;;5062858;28;20128;-75
2023/09/07 03:17:17;;;;;;;7.70;6.90;;;20.00;99.90;;;;;;5065482;28;20096;-76
2023/09/07 03:19:43;;;;;;;7.55;6.90;;;20.00;99.90;;;;;;5061875;28;20032;-75
2023/09/07 03:22:09;;;;;;;8.60;6.55;;;20.00;99.90;;;;;;5069185;28;20494;-76
2023/09/07 03:24:35;;;;;;;8.70;7.32;;;19.90;99.90;;;;;;5053046;28;20056;-76
2023/09/07 03:27:00;;;;;;;7.32;6.55;;;19.90;99.90;;;;;;5053088;28;20073;-75
2023/09/07 03:29:26;;;;;;;7.97;7.28;;;19.90;99.90;;;;;;5052584;28;20032;-76
2023/09/07 03:31:51;;;;;;;8.52;7.57;;;19.90;99.90;;;;;;5052644;28;20017;-76
2023/09/07 03:34:17;;;;;;;7.72;7.05;;;19.90;99.90;;;;;;5050774;28;20017;-75
2023/09/07 03:36:43;;;;;;;7.78;7.07;;;19.80;99.90;;;;;;5052609;28;20028;-76
2023/09/07 03:39:09;;;;;;;7.80;7.00;;;19.80;99.90;;;;;;5052833;28;20059;-76
2023/09/07 03:41:35;;;;;;;10.48;7.07;;;19.80;99.90;;;;;;5053628;28;20062;-76
2023/09/07 03:44:01;;;;;;;6.65;6.03;;;19.80;99.90;;;;;;5053042;28;20421;-76
2023/09/07 03:46:27;;;;;;;6.93;6.32;;;19.80;99.90;;;;;;5053725;28;20020;-75
2023/09/07 03:48:52;;;;;;;7.85;7.05;;;19.80;99.90;;;;;;5052715;28;20047;-75
2023/09/07 03:51:18;;;;;;;8.40;7.47;;;19.70;99.90;;;;;;5055291;28;20021;-75
2023/09/07 03:53:43;;;;;;;7.65;6.90;;;19.70;99.90;;;;;;5070235;28;20060;-76
2023/09/07 03:56:09;;;;;;;7.47;6.78;;;19.70;99.90;;;;;;5067115;28;20044;-75
2023/09/07 03:58:34;;;;;;;7.05;6.45;;;19.70;99.90;;;;;;5052244;28;20028;-75
2023/09/07 04:01:00;;;;;;;8.05;7.22;;;19.60;99.90;;;;;;5052113;28;20017;-75
2023/09/07 04:03:26;;;;;;;6.50;5.90;;;19.60;99.90;;;;;;5049905;28;20044;-75
2023/09/07 04:05:52;;;;;;;7.78;6.60;;;19.60;99.90;;;;;;5064794;28;20037;-75
2023/09/07 04:08:18;;;;;;;7.90;7.10;;;19.60;99.90;;;;;;5050181;28;20082;-75
2023/09/07 04:10:44;;;;;;;7.72;6.97;;;19.50;99.90;;;;;;5051672;28;20017;-76
2023/09/07 04:13:09;;;;;;;7.07;6.47;;;19.50;99.90;;;;;;5051817;28;20027;-75
2023/09/07 04:15:42;;;;;;;7.03;6.32;;;19.50;99.90;;;;;;5050407;28;20021;-76
2023/09/07 04:18:12;;;;;;;8.27;7.47;;;19.50;99.90;;;;;;5060673;28;20017;-76
2023/09/07 04:20:39;;;;;;;7.65;6.95;;;19.40;99.90;;;;;;5053379;28;20024;-75
2023/09/07 04:23:04;;;;;;;7.25;6.60;;;19.50;99.90;;;;;;5051866;28;20025;-76
2023/09/07 04:25:31;;;;;;;8.07;6.72;;;19.40;99.90;;;;;;5052371;28;20033;-76
2023/09/07 04:27:57;;;;;;;7.10;6.40;;;19.40;99.90;;;;;;5052016;28;20064;-75
2023/09/07 04:30:23;;;;;;;7.72;6.93;;;19.40;99.90;;;;;;5052361;28;20238;-75
2023/09/07 04:32:48;;;;;;;7.43;6.72;;;19.40;99.90;;;;;;5051383;28;20486;-76
2023/09/07 04:35:14;;;;;;;7.15;6.45;;;19.40;99.90;;;;;;5052059;28;20070;-76
2023/09/07 04:37:43;;;;;;;8.35;6.65;;;19.40;99.90;;;;;;5051842;28;20040;-75
2023/09/07 04:40:09;;;;;;;8.10;7.32;;;19.40;99.90;;;;;;5052687;28;20009;-76
2023/09/07 04:42:35;;;;;;;7.40;6.65;;;19.40;99.90;;;;;;5051823;28;20391;-76
2023/09/07 04:45:01;;;;;;;10.27;7.88;;;19.30;99.90;;;;;;5052852;28;20134;-76
2023/09/07 04:47:27;;;;;;;9.07;8.15;;;19.30;99.90;;;;;;5051286;28;20553;-76
2023/09/07 04:49:52;;;;;;;7.40;6.75;;;19.30;99.90;;;;;;5050429;28;20021;-76
2023/09/07 04:52:18;;;;;;;8.68;7.05;;;19.30;99.90;;;;;;5050751;28;20029;-76
2023/09/07 04:54:44;;;;;;;8.15;6.50;;;19.30;99.90;;;;;;5070346;28;20066;-75
2023/09/07 04:57:10;;;;;;;7.50;6.65;;;19.30;99.90;;;;;;5062216;28;20059;-76
2023/09/07 04:59:36;;;;;;;7.38;6.65;;;19.20;99.90;;;;;;5069708;28;20063;-76
2023/09/07 05:02:01;;;;;;;7.60;6.82;;;19.20;99.90;;;;;;5069744;28;20495;-75
2023/09/07 05:04:28;;;;;;;9.18;8.38;;;19.20;99.90;;;;;;5069898;28;20389;-76
2023/09/07 05:06:53;;;;;;;8.68;7.78;;;19.10;99.90;;;;;;5070367;28;20024;-76
2023/09/07 05:09:20;;;;;;;7.90;7.10;;;19.10;99.90;;;;;;5069352;28;20047;-76
2023/09/07 05:11:45;;;;;;;8.85;7.07;;;19.00;99.90;;;;;;5070082;28;20115;-76
2023/09/07 05:14:11;;;;;;;8.77;7.88;;;19.00;99.90;;;;;;5056207;28;20127;-76
2023/09/07 05:16:36;;;;;;;9.13;8.23;;;19.00;99.90;;;;;;5059949;28;20032;-76
2023/09/07 05:19:02;;;;;;;9.38;8.23;;;19.00;99.90;;;;;;5067828;28;20013;-76
2023/09/07 05:21:27;;;;;;;8.20;7.40;;;19.00;99.90;;;;;;5068153;28;20032;-76
2023/09/07 05:23:53;;;;;;;7.80;7.10;;;19.00;99.90;;;;;;5069656;28;20026;-76
2023/09/07 05:26:24;;;;;;;8.05;7.30;;;19.00;99.90;;;;;;5058882;28;20021;-76
2023/09/07 05:28:50;;;;;;;8.55;7.70;;;19.00;99.90;;;;;;5063215;28;20021;-75
2023/09/07 05:31:15;;;;;;;8.18;7.47;;;19.00;99.90;;;;;;5049475;28;20107;-75
2023/09/07 05:33:41;;;;;;;8.77;7.47;;;19.00;99.90;;;;;;5050326;28;20025;-76
2023/09/07 05:36:07;;;;;;;9.45;7.80;;;19.00;99.90;;;;;;5049110;28;20037;-75
2023/09/07 05:38:32;;;;;;;12.55;8.18;;;19.00;99.90;;;;;;5049716;28;20066;-76
2023/09/07 05:40:58;;;;;;;8.25;7.38;;;19.10;99.90;;;;;;5047474;28;20480;-75
2023/09/07 05:43:24;;;;;;;8.02;7.32;;;19.10;99.90;;;;;;5047525;28;20015;-75
2023/09/07 05:45:49;;;;;;;8.55;7.75;;;19.00;99.90;;;;;;5049748;28;20056;-76
2023/09/07 05:48:21;;;;;;;8.07;7.28;;;19.10;99.90;;;;;;5050076;28;20373;-76
2023/09/07 05:50:46;;;;;;;9.80;8.90;;;19.10;99.90;;;;;;5050130;28;20067;-76
2023/09/07 05:53:12;;;;;;;8.80;7.65;;;19.10;99.90;;;;;;5067840;28;20008;-75
2023/09/07 05:55:38;;;;;;;12.35;8.90;;;19.10;99.90;;;;;;5069279;28;20486;-76
2023/09/07 05:58:07;;;;;;;8.18;7.20;;;19.10;99.90;;;;;;5069098;28;20023;-75
2023/09/07 06:00:35;;;;;;;9.15;8.20;;;19.10;99.90;;;;;;5069175;28;20469;-76
2023/09/07 06:03:00;;;;;;;7.97;7.00;;;19.20;99.90;;;;;;5055179;28;20380;-75
2023/09/07 06:05:26;;;;;;;9.20;8.20;;;19.20;99.90;;;;;;5068910;28;20025;-76
2023/09/07 06:07:52;;;;;;;11.18;8.77;;;19.20;99.90;;;;;;5068466;28;20024;-75
2023/09/07 06:10:19;;;;;;;10.77;8.73;;;19.30;99.90;;;;;;5068881;28;20024;-76
2023/09/07 06:12:45;;;;;;;9.63;8.73;;;19.30;99.90;;;;;;5067285;28;20032;-76
2023/09/07 06:15:10;;;;;;;10.52;9.02;;;19.30;99.90;;;;;;5068012;28;20385;-76
2023/09/07 06:17:36;;;;;;;8.57;7.75;;;19.40;99.90;;;;;;5067611;28;20082;-76
2023/09/07 06:20:02;;;;;;;9.30;8.40;;;19.40;99.90;;;;;;5068930;28;20416;-76
2023/09/07 06:22:28;;;;;;;10.32;8.75;;;19.40;99.90;;;;;;5060673;28;20515;-76
2023/09/07 06:24:53;;;;;;;8.52;7.38;;;19.50;99.90;;;;;;5061400;28;20032;-76
2023/09/07 06:27:19;;;;;;;9.38;7.05;;;19.50;99.90;;;;;;5067507;28;20025;-75
2023/09/07 06:29:44;;;;;;;11.30;9.88;;;19.60;99.90;;;;;;5068011;28;20036;-75
2023/09/07 06:32:10;;;;;;;9.35;8.55;;;19.60;99.90;;;;;;5060942;28;20028;-75
2023/09/07 06:34:35;;;;;;;10.50;9.50;;;19.60;99.90;;;;;;5068916;28;20140;-76
2023/09/07 06:37:01;;;;;;;8.98;8.15;;;19.70;99.90;;;;;;5068062;28;20021;-75
2023/09/07 06:39:27;;;;;;;8.52;7.65;;;19.70;99.90;;;;;;5059781;28;20029;-76
2023/09/07 06:41:53;;;;;;;8.10;7.30;;;19.80;99.90;;;;;;5067369;28;20382;-76
2023/09/07 06:44:18;;;;;;;9.98;9.00;;;19.80;99.90;;;;;;5068199;28;20099;-75
2023/09/07 06:46:44;;;;;;;9.40;7.45;;;19.90;99.90;;;;;;5067040;28;20060;-75
2023/09/07 06:49:09;;;;;;;10.45;7.88;;;19.90;99.90;;;;;;5068738;28;20115;-75
2023/09/07 06:51:35;;;;;;;8.82;7.50;;;20.00;99.90;;;;;;5051514;28;20283;-75
2023/09/07 06:54:01;;;;;;;9.57;7.53;;;20.00;99.90;;;;;;5061047;28;20041;-76
2023/09/07 06:56:26;;;;;;;8.18;7.05;;;20.10;99.90;;;;;;5067736;28;20045;-76
2023/09/07 06:58:52;;;;;;;7.95;7.18;;;20.20;99.90;;;;;;5054974;28;20096;-75
2023/09/07 07:01:18;;;;;;;8.93;7.30;;;20.30;99.90;;;;;;5053425;28;20066;-77
2023/09/07 07:03:44;;;;;;;7.90;7.22;;;20.20;99.90;;;;;;5059175;28;20028;-76
2023/09/07 07:06:10;;;;;;;8.75;7.63;;;20.30;99.90;;;;;;5055645;28;20370;-76
2023/09/07 07:08:35;;;;;;;11.93;7.80;;;20.40;99.90;;;;;;5052644;28;20028;-75
2023/09/07 07:11:01;;;;;;;8.23;7.38;;;20.50;99.90;;;;;;5055533;28;20016;-75
2023/09/07 07:13:26;;;;;;;13.40;7.32;;;20.50;99.90;;;;;;5059093;28;20086;-76
2023/09/07 07:15:52;;;;;;;7.68;6.97;;;20.60;99.80;;;;;;5055094;28;20377;-75
2023/09/07 07:18:18;;;;;;;8.25;7.55;;;20.70;99.70;;;;;;5057923;28;20021;-75
2023/09/07 07:20:44;;;;;;;8.27;6.28;;;20.70;99.70;;;;;;5055256;28;20537;-75
2023/09/07 07:23:10;;;;;;;7.93;6.28;;;20.80;99.70;;;;;;5059847;28;20024;-76
2023/09/07 07:25:37;;;;;;;7.93;7.13;;;20.80;99.60;;;;;;5054703;28;20048;-76
2023/09/07 07:28:05;;;;;;;6.53;5.88;;;20.90;99.30;;;;;;5059107;28;20012;-76
2023/09/07 07:30:35;;;;;;;7.55;6.03;;;21.00;99.30;;;;;;5053210;28;20021;-75
2023/09/07 07:33:03;;;;;;;7.88;6.53;;;21.00;99.20;;;;;;5060403;28;20020;-75
2023/09/07 07:35:30;;;;;;;7.68;6.63;;;21.10;99.20;;;;;;5055345;28;20558;-75
2023/09/07 07:37:55;;;;;;;7.63;5.78;;;21.20;99.00;;;;;;5062682;28;20024;-75
2023/09/07 07:40:21;;;;;;;9.05;6.72;;;21.30;99.00;;;;;;5056172;28;20445;-75
2023/09/07 07:42:47;;;;;;;8.07;6.20;;;21.30;98.90;;;;;;5052311;28;20489;-75
2023/09/07 07:45:14;;;;;;;7.45;6.60;;;21.40;98.80;;;;;;5062003;28;20028;-75
2023/09/07 07:47:41;;;;;;;7.72;6.93;;;21.40;98.70;;;;;;5068975;28;20040;-75
2023/09/07 07:50:07;;;;;;;9.40;6.18;;;21.50;98.50;;;;;;5062600;28;20496;-75
2023/09/07 07:52:33;;;;;;;10.32;6.10;;;21.60;98.40;;;;;;5064438;28;20028;-75
2023/09/07 07:54:59;;;;;;;5.93;5.32;;;21.60;98.40;;;;;;5044904;28;20080;-75
2023/09/07 07:57:24;;;;;;;10.27;7.57;;;21.70;98.40;;;;;;5057869;28;20072;-75
2023/09/07 07:59:50;;;;;;;8.38;7.45;;;21.70;98.10;;;;;;5058396;28;20039;-76
2023/09/07 08:02:16;;;;;;;7.38;6.57;;;21.80;97.80;;;;;;5069548;28;20510;-75
2023/09/07 08:04:41;;;;;;;6.35;5.80;;;21.90;97.80;;;;;;5068995;28;20115;-75
2023/09/07 08:07:08;;;;;;;7.50;6.80;;;22.00;97.60;;;;;;5064520;28;20047;-76
2023/09/07 08:09:34;;;;;;;7.95;6.03;;;22.10;97.50;;;;;;5067437;28;20086;-76
2023/09/07 08:12:03;;;;;;;9.10;6.70;;;22.10;97.40;;;;;;5057414;28;20044;-75
2023/09/07 08:14:29;;;;;;;8.32;7.53;;;22.20;97.30;;;;;;5044854;28;20029;-75
2023/09/07 08:16:56;;;;;;;8.00;7.30;;;22.30;97.20;;;;;;5057192;28;20092;-75
2023/09/07 08:19:21;;;;;;;7.20;6.50;;;22.40;97.40;;;;;;5053422;28;20047;-75
2023/09/07 08:21:47;;;;;;;9.60;7.82;;;22.40;97.00;;;;;;5054347;28;20478;-75
2023/09/07 08:24:13;;;;;;;9.77;6.10;;;22.50;96.90;;;;;;5052505;28;20025;-75
2023/09/07 08:26:39;;;;;;;7.22;6.53;;;22.50;96.90;;;;;;5060177;28;20021;-75
2023/09/07 08:29:05;;;;;;;8.05;7.00;;;22.60;96.80;;;;;;5051461;28;20009;-75
2023/09/07 08:31:33;;;;;;;8.50;7.70;;;22.70;96.70;;;;;;5053083;28;20033;-75
2023/09/07 08:34:04;;;;;;;8.00;6.18;;;22.70;96.90;;;;;;5043963;28;20025;-75
2023/09/07 08:36:34;;;;;;;9.55;6.63;;;22.80;96.60;;;;;;5046361;28;20209;-75
2023/09/07 08:39:07;;;;;;;8.73;7.75;;;22.80;96.70;;;;;;5047590;28;20063;-75
2023/09/07 08:41:47;;;;;;;11.20;8.07;;;22.90;96.50;;;;;;5047525;28;20059;-74
2023/09/07 08:44:20;;;;;;;8.05;7.20;;;23.00;96.40;;;;;;5041730;28;20482;-75
2023/09/07 08:46:51;;;;;;;9.07;8.27;;;23.10;96.50;;;;;;5046743;28;20032;-75
2023/09/07 08:49:19;;;;;;;8.45;7.65;;;23.10;96.20;;;;;;5051751;28;20021;-75
2023/09/07 08:51:45;;;;;;;8.57;7.88;;;23.20;96.20;;;;;;5034801;28;20025;-75
2023/09/07 08:54:12;;;;;;;8.40;7.20;;;23.20;96.00;;;;;;5045918;28;20091;-75
2023/09/07 08:56:38;;;;;;;7.82;6.90;;;23.30;96.00;;;;;;5046503;28;20510;-75
2023/09/07 08:59:04;;;;;;;7.93;7.13;;;23.30;96.00;;;;;;5047681;28;20061;-75
2023/09/07 09:01:31;;;;;;;10.27;6.68;;;23.40;96.00;;;;;;5047571;28;20108;-75
2023/09/07 09:03:58;;;;;;;7.85;7.15;;;23.50;96.00;;;;;;5047430;28;20066;-75
2023/09/07 09:06:24;;;;;;;9.13;7.85;;;23.60;95.90;;;;;;5046978;28;20431;-75
2023/09/07 09:08:56;;;;;;;6.63;6.03;;;23.70;95.50;;;;;;5046648;28;20389;-75
2023/09/07 09:11:23;;;;;;;8.18;7.38;;;23.80;95.30;;;;;;5045728;28;20032;-75
2023/09/07 09:13:50;;;;;;;6.55;5.57;;;23.90;95.10;;;;;;5054092;28;20039;-75
2023/09/07 09:16:16;;;;;;;6.65;5.78;;;24.00;95.10;;;;;;5055239;28;20032;-75
2023/09/07 09:18:52;;;;;;;7.45;6.75;;;24.10;95.10;;;;;;5053753;28;20025;-75
2023/09/07 09:21:18;;;;;;;6.95;5.68;;;24.20;95.10;;;;;;5037978;28;20029;-75
2023/09/07 09:23:44;;;;;;;6.45;5.53;;;24.30;95.00;;;;;;5046515;28;20081;-75
2023/09/07 09:26:09;;;;;;;6.43;5.82;;;24.40;94.90;;;;;;5047032;28;20422;-75
2023/09/07 09:28:35;;;;;;;6.20;4.85;;;24.40;94.60;;;;;;5045013;28;20656;-76
2023/09/07 09:31:05;;;;;;;7.90;5.57;;;24.50;94.40;;;;;;5045982;28;20036;-75
2023/09/07 09:33:31;;;;;;;10.68;6.18;;;24.60;94.00;;;;;;5046271;28;20017;-75
2023/09/07 09:35:57;;;;;;;9.23;5.07;;;24.70;93.90;;;;;;5047218;28;20029;-75
2023/09/07 09:38:23;;;;;;;6.53;4.60;;;24.70;93.80;;;;;;5045552;28;20059;-75
2023/09/07 09:40:50;;;;;;;6.75;5.60;;;24.80;93.80;;;;;;5045607;28;20054;-75
2023/09/07 09:43:16;;;;;;;4.50;4.05;;;24.90;93.70;;;;;;5046942;28;20017;-75
2023/09/07 09:45:41;;;;;;;5.15;4.75;;;25.00;93.70;;;;;;5046511;28;20239;-75
2023/09/07 09:48:08;;;;;;;5.10;4.35;;;25.10;93.30;;;;;;5046257;28;20515;-75
2023/09/07 09:50:38;;;;;;;5.18;4.28;;;25.20;93.10;;;;;;5045932;28;20132;-75
2023/09/07 09:53:07;;;;;;;9.65;4.75;;;25.30;92.80;;;;;;5049946;28;20024;-75
2023/09/07 09:55:34;;;;;;;5.22;3.90;;;25.40;92.50;;;;;;5055143;28;20124;-75
2023/09/07 09:58:00;;;;;;;4.85;3.92;;;25.40;92.50;;;;;;5046632;28;20033;-75
2023/09/07 10:00:28;;;;;;;5.00;4.38;;;25.50;92.60;;;;;;5046178;28;20107;-75
2023/09/07 10:03:32;;;;;;;4.43;3.80;;;25.60;92.60;;;;;;5049931;28;20023;-76
2023/09/07 10:06:30;;;;;;;6.78;3.45;;;25.70;92.10;;;;;;5054007;28;20029;-75
2023/09/07 10:09:03;;;;;;;5.18;4.03;;;25.80;92.20;;;;;;5058972;28;20481;-76
2023/09/07 10:11:30;;;;;;;;;;;25.80;92.20;;;;;;5048788;28;20033;-76
2023/09/07 10:14:05;;;;;;;4.68;4.00;;;25.90;92.20;;;;;;5053960;28;19913;-76
2023/09/07 10:16:44;;;;;;;6.03;4.40;;;25.90;91.80;;;;;;5030827;28;20531;-75
2023/09/07 10:19:23;;;;;;;4.68;4.03;;;25.90;91.80;;;;;;5053883;28;20035;-75
2023/09/07 10:21:49;;;;;;;6.25;3.65;;;26.00;91.90;;;;;;5054211;28;20036;-75
2023/09/07 10:24:35;;;;;;;5.35;4.10;;;26.10;92.00;;;;;;5050960;28;20043;-76
2023/09/07 10:27:04;;;;;;;5.43;4.40;;;26.20;91.50;;;;;;5058517;28;20124;-75
2023/09/07 10:29:52;;;;;;;5.85;4.20;;;26.20;91.20;;;;;;5052133;28;20413;-76
2023/09/07 10:32:18;;;;;;;5.97;4.07;;;26.20;91.00;;;;;;5034108;28;20091;-75
2023/09/07 10:34:43;;;;;;;6.75;3.65;;;26.30;91.00;;;;;;5054708;28;20029;-75
2023/09/07 10:37:12;;;;;;;7.38;4.75;;;26.30;91.20;;;;;;5055025;28;20064;-75
2023/09/07 10:39:43;;;;;;;4.70;4.05;;;26.40;91.40;;;;;;5058327;28;20398;-76
2023/09/07 10:42:19;;;;;;;6.20;3.80;;;26.40;91.00;;;;;;5064625;28;20473;-75
2023/09/07 10:44:45;;;;;;;4.95;3.58;;;26.50;91.00;;;;;;5067877;28;20081;-75
2023/09/07 10:47:10;;;;;;;6.72;3.65;;;26.50;90.20;;;;;;5051530;28;20028;-75
2023/09/07 10:49:36;;;;;;;4.57;4.13;;;26.50;90.10;;;;;;5060767;28;20037;-75
2023/09/07 10:52:04;;;;;;;4.60;3.60;;;26.60;90.10;;;;;;5057658;28;20056;-75
2023/09/07 10:54:29;;;;;;;4.78;4.25;;;26.60;90.00;;;;;;5063003;28;20017;-75
2023/09/07 10:56:57;;;;;;;5.15;3.92;;;26.60;89.70;;;;;;5059404;28;20033;-76
2023/09/07 10:59:23;;;;;;;5.57;3.40;;;26.60;88.70;;;;;;5066993;28;20016;-75
2023/09/07 11:01:48;;;;;;;4.47;3.38;;;26.60;87.80;;;;;;5068841;28;20025;-75
2023/09/07 11:04:17;;;;;;;4.18;3.83;;;26.60;87.20;;;;;;5062292;28;20087;-75
2023/09/07 11:06:42;;;;;;;6.53;3.65;;;26.60;86.50;;;;;;5048877;28;20024;-75
2023/09/07 11:09:10;;;;;;;7.45;3.90;;;26.70;85.90;;;;;;5066414;28;20028;-75
2023/09/07 11:11:37;;;;;;;6.53;4.28;;;26.70;86.00;;;;;;5070634;28;20307;-75
2023/09/07 11:14:04;;;;;;;5.15;3.05;;;26.70;86.30;;;;;;5072069;28;20104;-75
2023/09/07 11:16:30;;;;;;;3.78;3.40;;;26.70;86.50;;;;;;5071966;28;20032;-74
2023/09/07 11:18:56;;;;;;;5.00;3.53;;;26.70;86.70;;;;;;5070233;28;20017;-75
2023/09/07 11:21:23;;;;;;;5.30;3.30;;;26.80;87.30;;;;;;5071243;28;20044;-75
2023/09/07 11:23:49;;;;;;;3.60;3.30;;;26.80;87.60;;;;;;5071808;28;20063;-75
2023/09/07 11:26:17;;;;;;;6.45;3.97;;;26.80;87.40;;;;;;5071020;28;20446;-74
2023/09/07 11:28:46;;;;;;;4.45;3.63;;;26.80;87.10;;;;;;5071643;28;20056;-75
2023/09/07 11:31:11;;;;;;;4.57;4.18;;;26.80;86.70;;;;;;5069516;28;20024;-75
2023/09/07 11:33:38;;;;;;;4.03;3.17;;;26.80;86.90;;;;;;5071002;28;20016;-76
2023/09/07 11:36:04;;;;;;;3.60;3.30;;;26.80;87.50;;;;;;5058625;28;20023;-75
2023/09/07 11:38:35;;;;;;;4.22;3.83;;;26.90;87.50;;;;;;5053983;28;20029;-74
2023/09/07 11:41:01;;;;;;;7.15;3.80;;;26.90;87.40;;;;;;5063809;28;20024;-75
2023/09/07 11:43:27;;;;;;;3.45;3.15;;;26.90;87.60;;;;;;5057922;28;20385;-75
2023/09/07 11:45:53;;;;;;;4.00;3.20;;;26.90;86.50;;;;;;5062577;28;20489;-75
2023/09/07 11:48:18;;;;;;;4.93;3.55;;;27.00;86.20;;;;;;5051366;28;20467;-76
2023/09/07 11:50:44;;;;;;;3.90;3.58;;;27.00;85.60;;;;;;5054036;28;20035;-76
2023/09/07 11:53:10;;;;;;;3.67;3.30;;;27.00;85.60;;;;;;5056743;28;20393;-76
2023/09/07 11:55:35;;;;;;;4.15;3.25;;;27.00;85.80;;;;;;5065621;28;20405;-75
2023/09/07 11:58:02;;;;;;;5.65;4.10;;;27.00;85.50;;;;;;5063467;28;20112;-76
2023/09/07 12:00:29;;;;;;;4.70;3.20;;;27.10;85.60;;;;;;5064435;28;20024;-75
2023/09/07 12:02:55;;;;;;;6.95;4.18;;;27.10;85.50;;;;;;5060195;28;20043;-75
2023/09/07 12:05:20;;;;;;;4.30;3.45;;;27.10;85.20;;;;;;5065988;28;20107;-75
2023/09/07 12:07:46;;;;;;;3.65;3.28;;;27.10;85.30;;;;;;5062453;28;20017;-75
2023/09/07 12:10:13;;;;;;;6.13;3.60;;;27.20;85.10;;;;;;5061132;28;20021;-76
2023/09/07 12:12:43;;;;;;;4.55;3.72;;;27.20;85.00;;;;;;5065159;28;20029;-75
2023/09/07 12:15:11;;;;;;;3.92;3.60;;;27.20;85.60;;;;;;5063573;28;20021;-75
2023/09/07 12:17:37;;;;;;;4.20;3.83;;;27.20;85.70;;;;;;5052819;28;20381;-76
2023/09/07 12:20:04;;;;;;;4.10;3.42;;;27.30;85.20;;;;;;5061033;28;20051;-76
2023/09/07 12:22:30;;;;;;;6.63;3.80;;;27.30;85.00;;;;;;5060859;28;20025;-75
2023/09/07 12:24:56;;;;;;;4.25;3.85;;;27.40;84.90;;;;;;5068315;28;20027;-75
2023/09/07 12:27:22;;;;;;;4.75;3.60;;;27.30;84.80;;;;;;5065299;28;20109;-75
2023/09/07 12:29:48;;;;;;;4.13;3.03;;;27.40;84.40;;;;;;5069118;28;20380;-75
2023/09/07 12:32:14;;;;;;;4.63;3.40;;;27.40;85.00;;;;;;5067278;28;20033;-75
2023/09/07 12:34:39;;;;;;;5.68;3.83;;;27.40;85.20;;;;;;5062214;28;20081;-75
2023/09/07 12:37:06;;;;;;;4.35;3.40;;;27.50;85.90;;;;;;5052388;28;20013;-75
2023/09/07 12:39:32;;;;;;;4.68;3.72;;;27.50;85.90;;;;;;5064351;28;20043;-75
2023/09/07 12:41:58;;;;;;;4.40;4.00;;;27.50;85.60;;;;;;5054947;28;20100;-76
2023/09/07 12:44:23;;;;;;;4.13;3.83;;;27.50;85.30;;;;;;5065652;28;20101;-75